sensor_id;sensor_type;location;lat;lon;timestamp;temperature;humidity
7708;DHT22;3896;48.758;8.888;2024-01-10T00:01:23;-4.70;74.10
7708;DHT22;3896;48.758;8.888;2024-01-10T00:03:55;-4.70;74.10
7708;DHT22;3896;48.758;8.888;2024-01-10T00:06:21;-4.70;74.30
7708;DHT22;3896;48.758;8.888;2024-01-10T00:08:47;-4.70;74.40
7708;DHT22;3896;48.758;8.888;2024-01-10T00:11:12;-4.60;74.40
7708;DHT22;3896;48.758;8.888;2024-01-10T00:13:38;-4.60;74.40
7708;DHT22;3896;48.758;8.888;2024-01-10T00:16:03;-4.70;74.20
7708;DHT22;3896;48.758;8.888;2024-01-10T00:18:29;-4.60;74.40
7708;DHT22;3896;48.758;8.888;2024-01-10T00:20:55;-4.60;74.40
7708;DHT22;3896;48.758;8.888;2024-01-10T00:23:21;-4.60;74.60
7708;DHT22;3896;48.758;8.888;2024-01-10T00:25:47;-4.60;74.70
7708;DHT22;3896;48.758;8.888;2024-01-10T00:28:13;-4.60;74.80
7708;DHT22;3896;48.758;8.888;2024-01-10T00:30:39;-4.60;74.90
7708;DHT22;3896;48.758;8.888;2024-01-10T00:33:05;-4.60;75.00
7708;DHT22;3896;48.758;8.888;2024-01-10T00:35:31;-4.60;75.10
7708;DHT22;3896;48.758;8.888;2024-01-10T00:37:56;-4.50;75.40
7708;DHT22;3896;48.758;8.888;2024-01-10T00:40:23;-4.50;75.40
7708;DHT22;3896;48.758;8.888;2024-01-10T00:42:48;-4.50;75.50
7708;DHT22;3896;48.758;8.888;2024-01-10T00:45:15;-4.50;75.60
7708;DHT22;3896;48.758;8.888;2024-01-10T00:47:41;-4.50;75.70
7708;DHT22;3896;48.758;8.888;2024-01-10T00:50:07;-4.50;75.80
7708;DHT22;3896;48.758;8.888;2024-01-10T00:52:32;-4.50;75.80
7708;DHT22;3896;48.758;8.888;2024-01-10T00:54:58;-4.50;75.70
7708;DHT22;3896;48.758;8.888;2024-01-10T00:57:23;-4.50;75.80
7708;DHT22;3896;48.758;8.888;2024-01-10T00:59:49;-4.50;75.80
7708;DHT22;3896;48.758;8.888;2024-01-10T01:02:14;-4.50;76.00
7708;DHT22;3896;48.758;8.888;2024-01-10T01:04:40;-4.50;76.00
7708;DHT22;3896;48.758;8.888;2024-01-10T01:07:05;-4.40;76.20
7708;DHT22;3896;48.758;8.888;2024-01-10T01:09:31;-4.40;76.40
7708;DHT22;3896;48.758;8.888;2024-01-10T01:11:56;-4.40;76.40
7708;DHT22;3896;48.758;8.888;2024-01-10T01:14:22;-4.40;76.50
7708;DHT22;3896;48.758;8.888;2024-01-10T01:16:48;-4.40;76.60
7708;DHT22;3896;48.758;8.888;2024-01-10T01:19:13;-4.40;77.30
7708;DHT22;3896;48.758;8.888;2024-01-10T01:21:39;-4.40;76.50
7708;DHT22;3896;48.758;8.888;2024-01-10T01:24:04;-4.30;76.70
7708;DHT22;3896;48.758;8.888;2024-01-10T01:26:30;-4.30;76.80
7708;DHT22;3896;48.758;8.888;2024-01-10T01:28:56;-4.30;76.60
7708;DHT22;3896;48.758;8.888;2024-01-10T01:31:21;-4.30;76.70
7708;DHT22;3896;48.758;8.888;2024-01-10T01:33:47;-4.30;76.70
7708;DHT22;3896;48.758;8.888;2024-01-10T01:36:12;-4.30;76.90
7708;DHT22;3896;48.758;8.888;2024-01-10T01:38:38;-4.30;76.90
7708;DHT22;3896;48.758;8.888;2024-01-10T01:41:04;-4.30;76.90
7708;DHT22;3896;48.758;8.888;2024-01-10T01:43:31;-4.20;76.70
7708;DHT22;3896;48.758;8.888;2024-01-10T01:45:57;-4.20;76.70
7708;DHT22;3896;48.758;8.888;2024-01-10T01:48:24;-4.20;76.50
7708;DHT22;3896;48.758;8.888;2024-01-10T01:50:57;-4.20;76.40
7708;DHT22;3896;48.758;8.888;2024-01-10T01:53:24;-4.20;76.60
7708;DHT22;3896;48.758;8.888;2024-01-10T01:55:50;-4.20;76.70
7708;DHT22;3896;48.758;8.888;2024-01-10T01:58:16;-4.10;76.90
7708;DHT22;3896;48.758;8.888;2024-01-10T02:00:41;-4.10;77.10
7708;DHT22;3896;48.758;8.888;2024-01-10T02:03:09;-4.10;77.20
7708;DHT22;3896;48.758;8.888;2024-01-10T02:05:35;-4.10;77.50
7708;DHT22;3896;48.758;8.888;2024-01-10T02:08:01;-4.10;77.60
7708;DHT22;3896;48.758;8.888;2024-01-10T02:10:27;-4.10;77.90
7708;DHT22;3896;48.758;8.888;2024-01-10T02:12:52;-4.10;78.10
7708;DHT22;3896;48.758;8.888;2024-01-10T02:15:18;-4.10;78.40
7708;DHT22;3896;48.758;8.888;2024-01-10T02:17:44;-4.10;78.70
7708;DHT22;3896;48.758;8.888;2024-01-10T02:20:14;-4.00;79.00
7708;DHT22;3896;48.758;8.888;2024-01-10T02:22:42;-4.00;79.10
7708;DHT22;3896;48.758;8.888;2024-01-10T02:25:11;-4.00;79.20
7708;DHT22;3896;48.758;8.888;2024-01-10T02:27:37;-4.00;79.30
7708;DHT22;3896;48.758;8.888;2024-01-10T02:30:04;-4.00;79.30
7708;DHT22;3896;48.758;8.888;2024-01-10T02:32:30;-4.00;79.30
7708;DHT22;3896;48.758;8.888;2024-01-10T02:34:56;-3.90;79.50
7708;DHT22;3896;48.758;8.888;2024-01-10T02:37:21;-3.90;79.40
7708;DHT22;3896;48.758;8.888;2024-01-10T02:39:47;-3.90;79.40
7708;DHT22;3896;48.758;8.888;2024-01-10T02:42:13;-3.90;79.50
7708;DHT22;3896;48.758;8.888;2024-01-10T02:57:35;-3.90;79.60
7708;DHT22;3896;48.758;8.888;2024-01-10T03:00:01;-3.80;79.70
7708;DHT22;3896;48.758;8.888;2024-01-10T03:02:26;-3.80;79.70
7708;DHT22;3896;48.758;8.888;2024-01-10T03:04:52;-3.80;79.60
7708;DHT22;3896;48.758;8.888;2024-01-10T03:07:17;-3.80;79.60
7708;DHT22;3896;48.758;8.888;2024-01-10T03:09:43;-3.80;79.60
7708;DHT22;3896;48.758;8.888;2024-01-10T03:12:10;-3.80;79.50
7708;DHT22;3896;48.758;8.888;2024-01-10T03:14:36;-3.80;79.70
7708;DHT22;3896;48.758;8.888;2024-01-10T03:17:01;-3.70;80.00
7708;DHT22;3896;48.758;8.888;2024-01-10T03:19:27;-3.70;80.10
7708;DHT22;3896;48.758;8.888;2024-01-10T03:21:53;-3.70;80.00
7708;DHT22;3896;48.758;8.888;2024-01-10T03:24:19;-3.70;80.00
7708;DHT22;3896;48.758;8.888;2024-01-10T03:26:45;-3.70;80.00
7708;DHT22;3896;48.758;8.888;2024-01-10T03:29:10;-3.70;79.90
7708;DHT22;3896;48.758;8.888;2024-01-10T03:31:36;-3.60;79.80
7708;DHT22;3896;48.758;8.888;2024-01-10T03:34:01;-3.60;79.60
7708;DHT22;3896;48.758;8.888;2024-01-10T03:36:28;-3.60;79.70
7708;DHT22;3896;48.758;8.888;2024-01-10T03:38:54;-3.60;79.80
7708;DHT22;3896;48.758;8.888;2024-01-10T03:41:20;-3.60;79.90
7708;DHT22;3896;48.758;8.888;2024-01-10T03:43:46;-3.60;80.00
7708;DHT22;3896;48.758;8.888;2024-01-10T03:46:12;-3.60;80.10
7708;DHT22;3896;48.758;8.888;2024-01-10T03:48:38;-3.50;80.30
7708;DHT22;3896;48.758;8.888;2024-01-10T03:51:13;-3.50;80.30
7708;DHT22;3896;48.758;8.888;2024-01-10T03:53:38;-3.50;80.20
7708;DHT22;3896;48.758;8.888;2024-01-10T03:56:05;-3.50;80.20
7708;DHT22;3896;48.758;8.888;2024-01-10T03:58:30;-3.50;80.10
7708;DHT22;3896;48.758;8.888;2024-01-10T04:00:56;-3.50;80.00
7708;DHT22;3896;48.758;8.888;2024-01-10T04:03:23;-3.50;80.00
7708;DHT22;3896;48.758;8.888;2024-01-10T04:05:48;-3.40;80.10
7708;DHT22;3896;48.758;8.888;2024-01-10T04:08:14;-3.40;80.00
7708;DHT22;3896;48.758;8.888;2024-01-10T04:10:39;-3.40;79.80
7708;DHT22;3896;48.758;8.888;2024-01-10T04:13:05;-3.40;79.80
7708;DHT22;3896;48.758;8.888;2024-01-10T04:15:30;-3.40;79.70
7708;DHT22;3896;48.758;8.888;2024-01-10T04:17:56;-3.40;79.70
7708;DHT22;3896;48.758;8.888;2024-01-10T04:20:21;-3.40;79.60
7708;DHT22;3896;48.758;8.888;2024-01-10T04:22:47;-3.30;79.80
7708;DHT22;3896;48.758;8.888;2024-01-10T04:25:12;-3.30;79.80
7708;DHT22;3896;48.758;8.888;2024-01-10T04:27:38;-3.30;79.80
7708;DHT22;3896;48.758;8.888;2024-01-10T04:30:05;-3.30;79.70
7708;DHT22;3896;48.758;8.888;2024-01-10T04:32:30;-3.30;79.60
7708;DHT22;3896;48.758;8.888;2024-01-10T04:34:56;-3.30;79.60
7708;DHT22;3896;48.758;8.888;2024-01-10T04:37:21;-3.30;79.50
7708;DHT22;3896;48.758;8.888;2024-01-10T04:39:47;-3.30;79.40
7708;DHT22;3896;48.758;8.888;2024-01-10T04:42:13;-3.20;79.40
7708;DHT22;3896;48.758;8.888;2024-01-10T04:44:39;-3.20;79.40
7708;DHT22;3896;48.758;8.888;2024-01-10T04:47:05;-3.20;79.50
7708;DHT22;3896;48.758;8.888;2024-01-10T04:49:31;-3.20;79.60
7708;DHT22;3896;48.758;8.888;2024-01-10T04:51:56;-3.20;79.60
7708;DHT22;3896;48.758;8.888;2024-01-10T04:54:22;-3.20;79.60
7708;DHT22;3896;48.758;8.888;2024-01-10T04:56:48;-3.20;79.70
7708;DHT22;3896;48.758;8.888;2024-01-10T04:59:13;-3.20;79.80
7708;DHT22;3896;48.758;8.888;2024-01-10T05:01:39;-3.20;79.90
7708;DHT22;3896;48.758;8.888;2024-01-10T05:04:05;-3.20;79.90
7708;DHT22;3896;48.758;8.888;2024-01-10T05:06:31;-3.20;79.90
7708;DHT22;3896;48.758;8.888;2024-01-10T05:08:56;-3.20;79.80
7708;DHT22;3896;48.758;8.888;2024-01-10T05:11:24;-3.20;79.90
7708;DHT22;3896;48.758;8.888;2024-01-10T05:13:50;-3.20;80.00
7708;DHT22;3896;48.758;8.888;2024-01-10T05:16:16;-3.20;80.10
7708;DHT22;3896;48.758;8.888;2024-01-10T05:18:42;-3.20;79.90
7708;DHT22;3896;48.758;8.888;2024-01-10T05:21:08;-3.20;79.90
7708;DHT22;3896;48.758;8.888;2024-01-10T05:23:33;-3.30;79.90
7708;DHT22;3896;48.758;8.888;2024-01-10T05:25:59;-3.30;79.70
7708;DHT22;3896;48.758;8.888;2024-01-10T05:28:24;-3.30;79.70
7708;DHT22;3896;48.758;8.888;2024-01-10T05:30:50;-3.30;79.70
7708;DHT22;3896;48.758;8.888;2024-01-10T05:33:15;-3.30;79.70
7708;DHT22;3896;48.758;8.888;2024-01-10T05:35:42;-3.30;79.70
7708;DHT22;3896;48.758;8.888;2024-01-10T05:38:07;-3.30;79.70
7708;DHT22;3896;48.758;8.888;2024-01-10T05:40:33;-3.30;79.70
7708;DHT22;3896;48.758;8.888;2024-01-10T05:42:58;-3.40;79.60
7708;DHT22;3896;48.758;8.888;2024-01-10T05:45:27;-3.40;79.60
7708;DHT22;3896;48.758;8.888;2024-01-10T05:47:53;-3.40;79.70
7708;DHT22;3896;48.758;8.888;2024-01-10T05:50:19;-3.40;79.90
7708;DHT22;3896;48.758;8.888;2024-01-10T05:52:45;-3.40;80.00
7708;DHT22;3896;48.758;8.888;2024-01-10T05:55:11;-3.40;80.00
7708;DHT22;3896;48.758;8.888;2024-01-10T05:57:37;-3.50;80.00
7708;DHT22;3896;48.758;8.888;2024-01-10T06:00:03;-3.50;80.20
7708;DHT22;3896;48.758;8.888;2024-01-10T06:02:30;-3.50;80.30
7708;DHT22;3896;48.758;8.888;2024-01-10T06:04:55;-3.50;80.40
7708;DHT22;3896;48.758;8.888;2024-01-10T06:07:21;-3.60;80.30
7708;DHT22;3896;48.758;8.888;2024-01-10T06:09:47;-3.60;80.40
7708;DHT22;3896;48.758;8.888;2024-01-10T06:12:13;-3.60;80.40
7708;DHT22;3896;48.758;8.888;2024-01-10T06:14:39;-3.70;80.40
7708;DHT22;3896;48.758;8.888;2024-01-10T06:17:05;-3.70;80.50
7708;DHT22;3896;48.758;8.888;2024-01-10T06:19:31;-3.70;80.50
7708;DHT22;3896;48.758;8.888;2024-01-10T06:21:57;-3.70;80.50
7708;DHT22;3896;48.758;8.888;2024-01-10T06:24:23;-3.80;80.30
7708;DHT22;3896;48.758;8.888;2024-01-10T06:26:49;-3.80;80.30
7708;DHT22;3896;48.758;8.888;2024-01-10T06:29:18;-3.80;80.40
7708;DHT22;3896;48.758;8.888;2024-01-10T06:31:44;-3.90;80.30
7708;DHT22;3896;48.758;8.888;2024-01-10T06:34:09;-3.90;80.20
7708;DHT22;3896;48.758;8.888;2024-01-10T06:36:35;-3.90;80.30
7708;DHT22;3896;48.758;8.888;2024-01-10T06:39:01;-4.00;80.20
7708;DHT22;3896;48.758;8.888;2024-01-10T06:41:26;-4.00;80.20
7708;DHT22;3896;48.758;8.888;2024-01-10T06:43:52;-4.00;80.10
7708;DHT22;3896;48.758;8.888;2024-01-10T06:46:19;-4.10;80.10
7708;DHT22;3896;48.758;8.888;2024-01-10T06:48:44;-4.10;80.00
7708;DHT22;3896;48.758;8.888;2024-01-10T06:51:12;-4.10;80.00
7708;DHT22;3896;48.758;8.888;2024-01-10T06:53:37;-4.20;79.90
7708;DHT22;3896;48.758;8.888;2024-01-10T06:56:03;-4.20;79.90
7708;DHT22;3896;48.758;8.888;2024-01-10T06:58:29;-4.30;79.80
7708;DHT22;3896;48.758;8.888;2024-01-10T07:00:54;-4.30;79.80
7708;DHT22;3896;48.758;8.888;2024-01-10T07:03:20;-4.30;80.00
7708;DHT22;3896;48.758;8.888;2024-01-10T07:05:45;-4.40;80.00
7708;DHT22;3896;48.758;8.888;2024-01-10T07:08:11;-4.40;80.10
7708;DHT22;3896;48.758;8.888;2024-01-10T07:10:37;-4.40;80.20
7708;DHT22;3896;48.758;8.888;2024-01-10T07:13:04;-4.50;80.30
7708;DHT22;3896;48.758;8.888;2024-01-10T07:15:30;-4.50;80.30
7708;DHT22;3896;48.758;8.888;2024-01-10T07:17:55;-4.30;81.00
7708;DHT22;3896;48.758;8.888;2024-01-10T07:20:21;-4.40;80.60
7708;DHT22;3896;48.758;8.888;2024-01-10T07:22:49;-4.40;80.50
7708;DHT22;3896;48.758;8.888;2024-01-10T07:25:15;-4.40;80.40
7708;DHT22;3896;48.758;8.888;2024-01-10T07:27:41;-4.50;80.30
7708;DHT22;3896;48.758;8.888;2024-01-10T07:30:07;-4.50;80.30
7708;DHT22;3896;48.758;8.888;2024-01-10T07:32:42;-4.50;80.30
7708;DHT22;3896;48.758;8.888;2024-01-10T07:35:08;-4.60;80.10
7708;DHT22;3896;48.758;8.888;2024-01-10T07:37:38;-4.60;80.30
7708;DHT22;3896;48.758;8.888;2024-01-10T07:40:05;-4.60;80.40
7708;DHT22;3896;48.758;8.888;2024-01-10T07:42:36;-4.70;80.30
7708;DHT22;3896;48.758;8.888;2024-01-10T07:45:02;-4.70;80.40
7708;DHT22;3896;48.758;8.888;2024-01-10T07:47:32;-4.70;80.60
7708;DHT22;3896;48.758;8.888;2024-01-10T07:49:59;-4.70;80.80
7708;DHT22;3896;48.758;8.888;2024-01-10T07:52:25;-4.70;80.90
7708;DHT22;3896;48.758;8.888;2024-01-10T07:54:50;-4.70;81.00
7708;DHT22;3896;48.758;8.888;2024-01-10T07:57:16;-4.80;81.10
7708;DHT22;3896;48.758;8.888;2024-01-10T07:59:44;-4.80;81.20
7708;DHT22;3896;48.758;8.888;2024-01-10T08:02:09;-4.80;81.30
7708;DHT22;3896;48.758;8.888;2024-01-10T08:04:35;-4.70;81.40
7708;DHT22;3896;48.758;8.888;2024-01-10T08:07:01;-4.70;81.40
7708;DHT22;3896;48.758;8.888;2024-01-10T08:09:27;-4.70;81.30
7708;DHT22;3896;48.758;8.888;2024-01-10T08:11:52;-4.70;81.40
7708;DHT22;3896;48.758;8.888;2024-01-10T08:14:18;-4.70;81.40
7708;DHT22;3896;48.758;8.888;2024-01-10T08:16:43;-4.70;81.80
7708;DHT22;3896;48.758;8.888;2024-01-10T08:19:10;-4.60;82.20
7708;DHT22;3896;48.758;8.888;2024-01-10T08:21:36;-4.60;82.30
7708;DHT22;3896;48.758;8.888;2024-01-10T08:24:02;-4.50;82.60
7708;DHT22;3896;48.758;8.888;2024-01-10T08:26:28;-4.50;82.80
7708;DHT22;3896;48.758;8.888;2024-01-10T08:28:54;-4.50;82.80
7708;DHT22;3896;48.758;8.888;2024-01-10T08:31:20;-4.50;83.10
7708;DHT22;3896;48.758;8.888;2024-01-10T08:33:46;-4.40;83.50
7708;DHT22;3896;48.758;8.888;2024-01-10T08:36:12;-4.40;83.50
7708;DHT22;3896;48.758;8.888;2024-01-10T08:38:40;-4.30;83.70
7708;DHT22;3896;48.758;8.888;2024-01-10T08:41:07;-4.30;83.80
7708;DHT22;3896;48.758;8.888;2024-01-10T08:43:34;-4.20;84.00
7708;DHT22;3896;48.758;8.888;2024-01-10T08:45:59;-4.20;84.10
7708;DHT22;3896;48.758;8.888;2024-01-10T08:48:25;-4.20;84.10
7708;DHT22;3896;48.758;8.888;2024-01-10T08:50:51;-4.10;84.10
7708;DHT22;3896;48.758;8.888;2024-01-10T08:53:16;-4.10;84.10
7708;DHT22;3896;48.758;8.888;2024-01-10T08:55:42;-4.00;84.20
7708;DHT22;3896;48.758;8.888;2024-01-10T08:58:08;-4.00;84.40
7708;DHT22;3896;48.758;8.888;2024-01-10T09:00:34;-4.00;84.30
7708;DHT22;3896;48.758;8.888;2024-01-10T09:03:00;-3.90;84.60
7708;DHT22;3896;48.758;8.888;2024-01-10T09:05:26;-3.90;84.40
7708;DHT22;3896;48.758;8.888;2024-01-10T09:07:52;-3.90;84.40
7708;DHT22;3896;48.758;8.888;2024-01-10T09:10:19;-3.80;84.40
7708;DHT22;3896;48.758;8.888;2024-01-10T09:12:47;-3.80;84.40
7708;DHT22;3896;48.758;8.888;2024-01-10T09:15:13;-3.70;84.50
7708;DHT22;3896;48.758;8.888;2024-01-10T09:17:41;-3.70;84.40
7708;DHT22;3896;48.758;8.888;2024-01-10T09:20:07;-3.60;84.50
7708;DHT22;3896;48.758;8.888;2024-01-10T09:22:33;-3.60;84.40
7708;DHT22;3896;48.758;8.888;2024-01-10T09:25:02;-3.60;84.30
7708;DHT22;3896;48.758;8.888;2024-01-10T09:27:32;-3.60;84.40
7708;DHT22;3896;48.758;8.888;2024-01-10T09:29:59;-3.50;84.40
7708;DHT22;3896;48.758;8.888;2024-01-10T09:32:27;-3.40;84.40
7708;DHT22;3896;48.758;8.888;2024-01-10T09:34:54;-3.40;84.30
7708;DHT22;3896;48.758;8.888;2024-01-10T09:37:19;-3.30;84.50
7708;DHT22;3896;48.758;8.888;2024-01-10T09:39:45;-3.30;84.30
7708;DHT22;3896;48.758;8.888;2024-01-10T09:42:11;-3.20;84.10
7708;DHT22;3896;48.758;8.888;2024-01-10T09:44:37;-3.10;84.10
7708;DHT22;3896;48.758;8.888;2024-01-10T09:47:02;-3.00;84.40
7708;DHT22;3896;48.758;8.888;2024-01-10T09:49:30;-2.90;84.50
7708;DHT22;3896;48.758;8.888;2024-01-10T09:51:59;-2.80;84.50
7708;DHT22;3896;48.758;8.888;2024-01-10T09:54:30;-2.70;84.10
7708;DHT22;3896;48.758;8.888;2024-01-10T09:56:57;-2.60;84.10
7708;DHT22;3896;48.758;8.888;2024-01-10T09:59:22;-2.50;84.10
7708;DHT22;3896;48.758;8.888;2024-01-10T10:01:51;-2.40;84.10
7708;DHT22;3896;48.758;8.888;2024-01-10T10:04:17;-2.30;83.90
7708;DHT22;3896;48.758;8.888;2024-01-10T10:06:43;-2.20;83.70
7708;DHT22;3896;48.758;8.888;2024-01-10T10:09:09;-2.10;83.50
7708;DHT22;3896;48.758;8.888;2024-01-10T10:11:36;-2.00;83.30
7708;DHT22;3896;48.758;8.888;2024-01-10T10:14:14;-1.90;83.50
7708;DHT22;3896;48.758;8.888;2024-01-10T10:16:41;-1.80;83.20
7708;DHT22;3896;48.758;8.888;2024-01-10T10:19:06;-1.70;82.90
7708;DHT22;3896;48.758;8.888;2024-01-10T10:21:32;-1.50;83.00
7708;DHT22;3896;48.758;8.888;2024-01-10T10:24:00;-1.40;82.50
7708;DHT22;3896;48.758;8.888;2024-01-10T10:26:27;-1.30;82.50
7708;DHT22;3896;48.758;8.888;2024-01-10T10:28:54;-1.20;82.30
7708;DHT22;3896;48.758;8.888;2024-01-10T10:31:21;-1.00;82.10
7708;DHT22;3896;48.758;8.888;2024-01-10T10:33:49;-0.90;82.10
7708;DHT22;3896;48.758;8.888;2024-01-10T10:36:19;-0.70;82.00
7708;DHT22;3896;48.758;8.888;2024-01-10T10:38:47;-0.60;81.90
7708;DHT22;3896;48.758;8.888;2024-01-10T10:41:14;-0.40;81.70
7708;DHT22;3896;48.758;8.888;2024-01-10T10:43:40;-0.30;81.30
7708;DHT22;3896;48.758;8.888;2024-01-10T10:46:08;-0.10;81.10
7708;DHT22;3896;48.758;8.888;2024-01-10T10:48:40;0.00;80.90
7708;DHT22;3896;48.758;8.888;2024-01-10T10:51:12;0.20;80.60
7708;DHT22;3896;48.758;8.888;2024-01-10T10:53:39;0.30;79.60
7708;DHT22;3896;48.758;8.888;2024-01-10T10:56:07;0.50;79.10
7708;DHT22;3896;48.758;8.888;2024-01-10T10:58:41;0.60;78.90
7708;DHT22;3896;48.758;8.888;2024-01-10T11:01:09;0.70;78.60
7708;DHT22;3896;48.758;8.888;2024-01-10T11:03:37;0.90;78.40
7708;DHT22;3896;48.758;8.888;2024-01-10T11:06:04;1.00;77.90
7708;DHT22;3896;48.758;8.888;2024-01-10T11:08:38;1.20;77.50
7708;DHT22;3896;48.758;8.888;2024-01-10T11:11:22;1.30;77.10
7708;DHT22;3896;48.758;8.888;2024-01-10T11:14:07;1.40;77.00
7708;DHT22;3896;48.758;8.888;2024-01-10T11:16:40;1.60;76.80
7708;DHT22;3896;48.758;8.888;2024-01-10T11:24:44;2.00;75.90
7708;DHT22;3896;48.758;8.888;2024-01-10T11:27:14;2.10;75.50
7708;DHT22;3896;48.758;8.888;2024-01-10T11:29:41;2.30;75.00
7708;DHT22;3896;48.758;8.888;2024-01-10T11:32:16;2.40;74.00
7708;DHT22;3896;48.758;8.888;2024-01-10T11:37:19;2.60;73.10
7708;DHT22;3896;48.758;8.888;2024-01-10T11:39:45;2.80;72.90
7708;DHT22;3896;48.758;8.888;2024-01-10T11:42:11;2.90;72.20
7708;DHT22;3896;48.758;8.888;2024-01-10T11:44:50;3.00;71.90
7708;DHT22;3896;48.758;8.888;2024-01-10T11:47:17;3.10;71.60
7708;DHT22;3896;48.758;8.888;2024-01-10T11:49:57;3.20;71.30
7708;DHT22;3896;48.758;8.888;2024-01-10T11:52:23;3.30;70.20
7708;DHT22;3896;48.758;8.888;2024-01-10T11:54:49;3.40;70.40
7708;DHT22;3896;48.758;8.888;2024-01-10T11:57:25;3.50;70.30
7708;DHT22;3896;48.758;8.888;2024-01-10T11:59:52;3.70;70.30
7708;DHT22;3896;48.758;8.888;2024-01-10T12:02:18;3.80;70.10
7708;DHT22;3896;48.758;8.888;2024-01-10T12:04:44;3.90;70.00
7708;DHT22;3896;48.758;8.888;2024-01-10T12:07:11;4.00;69.40
7708;DHT22;3896;48.758;8.888;2024-01-10T12:09:37;4.10;69.10
7708;DHT22;3896;48.758;8.888;2024-01-10T12:12:03;4.30;68.40
7708;DHT22;3896;48.758;8.888;2024-01-10T12:14:30;4.30;67.70
7708;DHT22;3896;48.758;8.888;2024-01-10T12:16:57;4.40;67.50
7708;DHT22;3896;48.758;8.888;2024-01-10T12:19:22;4.50;67.30
7708;DHT22;3896;48.758;8.888;2024-01-10T12:21:49;4.60;66.90
7708;DHT22;3896;48.758;8.888;2024-01-10T12:24:14;4.70;66.90
7708;DHT22;3896;48.758;8.888;2024-01-10T12:26:47;4.80;66.20
7708;DHT22;3896;48.758;8.888;2024-01-10T12:29:12;4.90;65.90
7708;DHT22;3896;48.758;8.888;2024-01-10T12:31:39;5.00;65.70
7708;DHT22;3896;48.758;8.888;2024-01-10T12:34:07;5.10;65.10
7708;DHT22;3896;48.758;8.888;2024-01-10T12:36:34;5.20;65.00
7708;DHT22;3896;48.758;8.888;2024-01-10T12:38:59;5.40;64.40
7708;DHT22;3896;48.758;8.888;2024-01-10T12:41:26;5.50;63.60
7708;DHT22;3896;48.758;8.888;2024-01-10T12:43:55;5.60;63.10
7708;DHT22;3896;48.758;8.888;2024-01-10T12:46:21;5.70;63.00
7708;DHT22;3896;48.758;8.888;2024-01-10T12:49:02;5.80;62.80
7708;DHT22;3896;48.758;8.888;2024-01-10T12:51:29;5.90;62.60
7708;DHT22;3896;48.758;8.888;2024-01-10T12:53:55;6.00;62.80
7708;DHT22;3896;48.758;8.888;2024-01-10T12:56:21;6.10;63.20
7708;DHT22;3896;48.758;8.888;2024-01-10T12:58:47;6.30;62.60
7708;DHT22;3896;48.758;8.888;2024-01-10T13:01:13;6.40;61.90
7708;DHT22;3896;48.758;8.888;2024-01-10T13:03:39;6.50;61.50
7708;DHT22;3896;48.758;8.888;2024-01-10T13:06:05;6.70;61.30
7708;DHT22;3896;48.758;8.888;2024-01-10T13:08:31;6.80;61.40
7708;DHT22;3896;48.758;8.888;2024-01-10T13:10:59;6.90;61.00
7708;DHT22;3896;48.758;8.888;2024-01-10T13:13:33;7.00;60.90
7708;DHT22;3896;48.758;8.888;2024-01-10T13:15:58;7.20;60.60
7708;DHT22;3896;48.758;8.888;2024-01-10T13:18:25;7.30;60.00
7708;DHT22;3896;48.758;8.888;2024-01-10T13:20:54;7.40;59.90
7708;DHT22;3896;48.758;8.888;2024-01-10T13:23:19;7.50;59.70
7708;DHT22;3896;48.758;8.888;2024-01-10T13:25:47;7.60;59.20
7708;DHT22;3896;48.758;8.888;2024-01-10T13:28:13;7.70;58.60
7708;DHT22;3896;48.758;8.888;2024-01-10T13:30:39;7.80;58.50
7708;DHT22;3896;48.758;8.888;2024-01-10T13:33:11;7.90;57.80
7708;DHT22;3896;48.758;8.888;2024-01-10T13:35:37;8.00;56.90
7708;DHT22;3896;48.758;8.888;2024-01-10T13:38:04;8.00;56.90
7708;DHT22;3896;48.758;8.888;2024-01-10T13:40:30;8.10;56.50
7708;DHT22;3896;48.758;8.888;2024-01-10T13:42:57;8.20;56.00
7708;DHT22;3896;48.758;8.888;2024-01-10T13:45:23;8.30;56.10
7708;DHT22;3896;48.758;8.888;2024-01-10T13:47:49;8.30;55.70
7708;DHT22;3896;48.758;8.888;2024-01-10T13:50:14;8.40;55.50
7708;DHT22;3896;48.758;8.888;2024-01-10T13:52:40;8.50;55.30
7708;DHT22;3896;48.758;8.888;2024-01-10T13:55:07;8.60;54.80
7708;DHT22;3896;48.758;8.888;2024-01-10T13:57:33;8.70;54.30
7708;DHT22;3896;48.758;8.888;2024-01-10T14:00:00;8.70;54.30
7708;DHT22;3896;48.758;8.888;2024-01-10T14:02:25;8.80;54.00
7708;DHT22;3896;48.758;8.888;2024-01-10T14:04:52;8.90;53.80
7708;DHT22;3896;48.758;8.888;2024-01-10T14:07:19;8.90;53.60
7708;DHT22;3896;48.758;8.888;2024-01-10T14:09:46;9.00;53.70
7708;DHT22;3896;48.758;8.888;2024-01-10T14:12:12;9.10;53.60
7708;DHT22;3896;48.758;8.888;2024-01-10T14:14:38;9.10;52.90
7708;DHT22;3896;48.758;8.888;2024-01-10T14:17:04;9.20;53.50
7708;DHT22;3896;48.758;8.888;2024-01-10T14:19:30;9.30;53.50
7708;DHT22;3896;48.758;8.888;2024-01-10T14:21:55;9.40;53.00
7708;DHT22;3896;48.758;8.888;2024-01-10T14:24:21;9.40;53.00
7708;DHT22;3896;48.758;8.888;2024-01-10T14:26:46;9.50;52.60
7708;DHT22;3896;48.758;8.888;2024-01-10T14:29:12;9.60;52.80
7708;DHT22;3896;48.758;8.888;2024-01-10T14:31:38;9.70;52.40
7708;DHT22;3896;48.758;8.888;2024-01-10T14:34:05;9.80;52.50
7708;DHT22;3896;48.758;8.888;2024-01-10T14:36:31;9.80;52.00
7708;DHT22;3896;48.758;8.888;2024-01-10T14:38:57;9.80;51.80
7708;DHT22;3896;48.758;8.888;2024-01-10T14:41:22;9.80;52.00
7708;DHT22;3896;48.758;8.888;2024-01-10T14:43:48;9.90;52.20
7708;DHT22;3896;48.758;8.888;2024-01-10T14:46:14;9.90;52.00
7708;DHT22;3896;48.758;8.888;2024-01-10T14:48:39;9.90;51.90
7708;DHT22;3896;48.758;8.888;2024-01-10T14:51:05;9.90;52.00
7708;DHT22;3896;48.758;8.888;2024-01-10T14:53:31;9.90;51.10
7708;DHT22;3896;48.758;8.888;2024-01-10T14:55:56;9.80;51.00
7708;DHT22;3896;48.758;8.888;2024-01-10T14:58:22;9.60;50.70
7708;DHT22;3896;48.758;8.888;2024-01-10T15:00:48;9.40;50.90
7708;DHT22;3896;48.758;8.888;2024-01-10T15:03:13;9.20;50.80
7708;DHT22;3896;48.758;8.888;2024-01-10T15:05:41;9.10;51.50
7708;DHT22;3896;48.758;8.888;2024-01-10T15:08:07;9.00;51.20
7708;DHT22;3896;48.758;8.888;2024-01-10T15:10:35;8.80;51.20
7708;DHT22;3896;48.758;8.888;2024-01-10T15:13:01;8.60;51.50
7708;DHT22;3896;48.758;8.888;2024-01-10T15:15:27;8.50;51.60
7708;DHT22;3896;48.758;8.888;2024-01-10T15:17:52;8.30;52.40
7708;DHT22;3896;48.758;8.888;2024-01-10T15:20:19;8.10;52.10
7708;DHT22;3896;48.758;8.888;2024-01-10T15:22:45;8.00;52.40
7708;DHT22;3896;48.758;8.888;2024-01-10T15:25:10;7.80;52.60
7708;DHT22;3896;48.758;8.888;2024-01-10T15:27:36;7.70;53.00
7708;DHT22;3896;48.758;8.888;2024-01-10T15:30:02;7.60;53.20
7708;DHT22;3896;48.758;8.888;2024-01-10T15:32:30;7.50;53.60
7708;DHT22;3896;48.758;8.888;2024-01-10T15:34:55;7.30;53.70
7708;DHT22;3896;48.758;8.888;2024-01-10T15:37:21;7.20;54.40
7708;DHT22;3896;48.758;8.888;2024-01-10T15:39:46;7.00;54.00
7708;DHT22;3896;48.758;8.888;2024-01-10T15:42:12;6.90;54.30
7708;DHT22;3896;48.758;8.888;2024-01-10T15:44:39;6.80;54.60
7708;DHT22;3896;48.758;8.888;2024-01-10T15:47:08;6.60;54.70
7708;DHT22;3896;48.758;8.888;2024-01-10T15:49:34;6.50;54.90
7708;DHT22;3896;48.758;8.888;2024-01-10T15:51:59;6.30;55.10
7708;DHT22;3896;48.758;8.888;2024-01-10T15:54:25;6.20;55.20
7708;DHT22;3896;48.758;8.888;2024-01-10T15:56:51;6.00;55.40
7708;DHT22;3896;48.758;8.888;2024-01-10T15:59:16;5.90;55.50
7708;DHT22;3896;48.758;8.888;2024-01-10T16:01:42;5.70;55.60
7708;DHT22;3896;48.758;8.888;2024-01-10T16:04:07;5.60;55.90
7708;DHT22;3896;48.758;8.888;2024-01-10T16:06:33;5.50;56.10
7708;DHT22;3896;48.758;8.888;2024-01-10T16:09:00;5.30;56.20
7708;DHT22;3896;48.758;8.888;2024-01-10T16:11:26;5.20;56.30
7708;DHT22;3896;48.758;8.888;2024-01-10T16:13:52;5.00;56.40
7708;DHT22;3896;48.758;8.888;2024-01-10T16:16:27;4.90;56.60
7708;DHT22;3896;48.758;8.888;2024-01-10T16:18:52;4.70;56.50
7708;DHT22;3896;48.758;8.888;2024-01-10T16:21:21;4.60;56.70
7708;DHT22;3896;48.758;8.888;2024-01-10T16:23:47;4.50;56.90